Airfield :
LOGIN :

Register | Disclaimer

   EN    FR    IT 

 










Legend :    VFR   Marginal VFR   IFR   Intensive IFR   Very Intensive IFR
Visi :
Ceiling :
>= 8 km
>= 3000ft
5 to 8 km
1000 to 3000 ft
1500m to 5 km
500 to 1000 ft
800 to 1500m
200 to 500 ft
< 800m
< 200 ft
Symbols :   Thunderstorms  Fog  Heavy snow  Heavy precipitations  Wind > 20 kt
SIGMETs :     Misc.  Thunderstorms  Icing  Turbulence  Mountain Waves  Volcanic Ashes






- Airport Elevation : 616 ft
- IATA code : PUF


LFBP - Pau

CURRENT METAR :
  • 230230Z AUTO 12006KT 9999 BKN098 BKN130 15/15 Q1013 TEMPO 30015G25KT 3000 SHRA BKN040TCU

EXPIRED METARs :
  • 230200Z AUTO 09005KT 9999 -RA FEW046/// BKN094/// BKN130/// ///TCU 15/14 Q1014 TEMPO 30015G25KT 3000 SHRA BKN008 BKN030TCU
  • 230130Z AUTO 08002KT 5000 RA BR FEW032/// SCT054/// OVC084/// ///TCU 15/14 Q1014 TEMPO 30015G25KT BKN008 BKN030TCU
  • 230100Z AUTO VRB02KT 9999 -RA FEW041/// SCT072/// BKN092/// ///CB 15/15 Q1014 TEMPO 30015G25KT 3000 SHRA BKN008 BKN030TCU
  • 230030Z AUTO 16005KT 130V190 9999 BKN082/// OVC100/// ///TCU 15/15 Q1014 TEMPO 30015G25KT 3000 SHRA BKN008 BKN030TCU
  • 230000Z AUTO 14002KT 9999 SCT100/// BKN120/// ///TCU 15/15 Q1014 TEMPO 30015G25KT 3000 SHRA BKN008 BKN030TCU

TAF TAF LFBP
Valid from the 23 at 00:00 until the 24 at 00:00 UTC


222300Z 2300/2324 15005KT 9999 BKN050
PROB40
TEMPO 2300/2316 30015G25KT 3000 SHRA BKN040TCU
PROB30
TEMPO 2300/2304 BKN008 BKN030TCU
PROB30
TEMPO 2310/2315 TSRA BKN010 BKN050CB
BECMG 2310/2312 30010KT



MET'MAP, your aeronautical weather chart ! - Copyright ORBIFLY December 2007 - Disclaimer

ORBIFLY MET'MAP TEAM :

Programming & Development : Alexandra Zaïnal
Concept & original design : Baudouin d'Aumeries
Assistance for programming : Marc-Olivier Méhu
Technical & hardware support : Manuel Goepfert

Contact : metmap@orbifly.com




SOURCES & CREDITS :

   NOAA